Snow/Ice From: 16-12-2017 16:00 Until: 17-12-2017 16:00 warning for: Snow/Ice Level: Yellow info button

Although rather usual in this region, locally or potentially dangerous phenomena are expected. (such as local winds, summer thunderstorms, rising streams or high waves) Be aware and pay attention to the latest weather updates, especially if you carry out activities exposed to weather or close to a stream or shoreline. 


Meteo18 Weather Cam more information Meteo18 Weather Cam


Thunder radar more information blitzortung!


warning for Snow/Ice more information rain snow radar


Visit our other weather sites:

Template documentation
and downloads

And another site



Weather Underground History page Text

Daily Summary for February 14, 2017 Units:  English    Metric   Both
« Previous Day
Next Day »
Daily Weekly Monthly Yearly Custom
  High: Low: Average:
Temperature: 55.2 °F 44.4 °F 49.5 °F
Dew Point: 47.3 °F 39.9 °F 43.7 °F
Humidity: 92 % 69 % 81 %
Wind Speed: 6 mph 0 mph 0.9 mph
Wind Gust: 12 mph - -
Wind:- - SE
Pressure: 30.4 in 30.1 in -
Precipitation: 0.19 in    
Historical Graphs
 
 
Tabular Data for February 14, 2017
Time Temperature Dew Point Pressure Wind Wind Speed Wind Gust Humidity Rainfall Rate (Hourly)
00:02 49.3 °F 39.9 °F 30.1 in ESE 2 mph 5 mph 70 % 0 in
00:07 49.5 °F 40.1 °F 30.1 in East 1 mph 6 mph 70 % 0 in
00:12 49.6 °F 40.3 °F 30.1 in ESE 3 mph 9 mph 70 % 0 in
00:17 49.6 °F 40.3 °F 30.1 in East 5 mph 9 mph 70 % 0 in
00:22 49.3 °F 40.3 °F 30.1 in ESE 5 mph 9 mph 71 % 0 in
00:32 49.1 °F 40.1 °F 30.1 in SSE 2 mph 11 mph 71 % 0 in
00:42 49.1 °F 40.1 °F 30.1 in SSW 3 mph 11 mph 71 % 0 in
00:47 48.9 °F 40.3 °F 30.1 in SSE 2 mph 10 mph 72 % 0 in
00:52 48.7 °F 40.1 °F 30.1 in ESE 4 mph 10 mph 72 % 0 in
01:02 48.7 °F 40.1 °F 30.1 in South 3 mph 9 mph 72 % 0 in
01:07 48.7 °F 40.5 °F 30.1 in SE 1 mph 9 mph 73 % 0 in
01:12 48.6 °F 40.6 °F 30.1 in SSE 2 mph 9 mph 74 % 0 in
01:17 48 °F 40.5 °F 30.1 in SW 4 mph 9 mph 75 % 0 in
01:22 48 °F 40.8 °F 30.1 in SE 2 mph 8 mph 76 % 0 in
01:32 47.3 °F 40.8 °F 30.2 in South 2 mph 8 mph 78 % 0 in
01:42 46.8 °F 41 °F 30.2 in SSE 2 mph 12 mph 80 % 0 in
01:47 46.6 °F 41 °F 30.2 in South 1 mph 7 mph 81 % 0.01 in
01:52 46.2 °F 41 °F 30.2 in South 1 mph 5 mph 82 % 0.01 in
02:02 45.9 °F 41 °F 30.2 in Calm   4 mph 83 % 0.01 in
02:12 45.9 °F 41.4 °F 30.2 in Calm   2 mph 84 % 0.01 in
02:17 45.7 °F 41.2 °F 30.2 in Calm   2 mph 84 % 0.02 in
02:22 45.5 °F 41.2 °F 30.2 in Calm   2 mph 85 % 0.02 in
02:27 45.3 °F 41.4 °F 30.2 in Calm   1 mph 86 % 0.02 in
02:32 45.3 °F 41.4 °F 30.2 in Calm   1 mph 86 % 0.02 in
02:42 45.1 °F 41.5 °F 30.2 in Calm   1 mph 87 % 0.01 in
02:47 45.1 °F 41.5 °F 30.2 in NNE 2 mph 2 mph 87 % 0.02 in
02:52 45.1 °F 41.5 °F 30.2 in NNE 1 mph 2 mph 87 % 0.02 in
02:57 45 °F 41.5 °F 30.2 in NNE 1 mph 3 mph 88 % 0.02 in
03:07 44.8 °F 41.7 °F 30.2 in Calm   1 mph 89 % 0.02 in
03:12 45.1 °F 41.5 °F 30.2 in Calm   2 mph 87 % 0.02 in
03:17 45.1 °F 41.2 °F 30.2 in Calm   2 mph 86 % 0.02 in
03:22 45.5 °F 41.5 °F 30.2 in Calm   2 mph 86 % 0.02 in
03:32 45.3 °F 41.4 °F 30.2 in Calm   1 mph 86 % 0.02 in
03:42 45.1 °F 41.5 °F 30.2 in Calm     87 % 0.02 in
03:47 45.3 °F 41.7 °F 30.2 in Calm     87 % 0.03 in
03:52 45.5 °F 41.5 °F 30.2 in Calm     86 % 0.03 in
04:02 45.3 °F 41.7 °F 30.2 in Calm     87 % 0.04 in
04:12 45 °F 41.9 °F 30.2 in Calm     89 % 0.04 in
04:22 44.4 °F 41.9 °F 30.2 in Calm     91 % 0.04 in
04:27 44.4 °F 42.3 °F 30.2 in Calm     92 % 0.04 in
04:32 44.8 °F 42.6 °F 30.2 in NE 1 mph   92 % 0.05 in
04:42 46 °F 42.6 °F 30.2 in NE 3 mph 3 mph 88 % 0.03 in
04:47 47.3 °F 42.8 °F 30.2 in ENE 3 mph 9 mph 84 % 0.02 in
04:52 48 °F 42.8 °F 30.2 in East 3 mph 9 mph 82 % 0.02 in
04:57 48.4 °F 43.2 °F 30.2 in East 1 mph 9 mph 82 % 0.02 in
05:02 48.4 °F 43.2 °F 30.2 in East 4 mph 9 mph 82 % 0.02 in
05:12 48.4 °F 42.8 °F 30.2 in Calm   8 mph 81 % 0.01 in
05:17 48 °F 42.8 °F 30.2 in Calm   6 mph 82 % 0.01 in
05:22 47.5 °F 42.8 °F 30.2 in WNW 1 mph 5 mph 84 % 0.01 in
05:32 46.8 °F 42.8 °F 30.2 in Calm   2 mph 86 % 0.01 in
05:42 45.7 °F 43 °F 30.2 in Calm   2 mph 90 % 0 in
05:47 45.7 °F 43 °F 30.2 in Calm   2 mph 90 % 0 in
05:52 45.9 °F 42.8 °F 30.2 in Calm   2 mph 89 % 0 in
05:57 46.2 °F 42.8 °F 30.2 in Calm   2 mph 88 % 0 in
06:02 45.9 °F 42.8 °F 30.2 in Calm   1 mph 89 % 0 in
06:12 46.2 °F 42.8 °F 30.2 in Calm   2 mph 88 % 0 in
06:17 46.2 °F 42.6 °F 30.2 in Calm   2 mph 87 % 0 in
06:22 46.4 °F 42.8 °F 30.2 in Calm   2 mph 87 % 0 in
06:32 46.2 °F 42.6 °F 30.2 in Calm   1 mph 87 % 0 in
06:42 46.8 °F 42.8 °F 30.2 in Calm   1 mph 86 % 0 in
06:52 46.6 °F 43 °F 30.2 in Calm   2 mph 87 % 0 in
07:02 46.8 °F 42.8 °F 30.2 in Calm   2 mph 86 % 0 in
07:12 46.8 °F 42.8 °F 30.2 in Calm   1 mph 86 % 0 in
07:17 46.6 °F 43 °F 30.2 in Calm     87 % 0 in
07:22 46.4 °F 42.8 °F 30.2 in Calm     87 % 0 in
07:27 46.4 °F 42.8 °F 30.2 in Calm     87 % 0 in
07:32 46.2 °F 42.6 °F 30.2 in Calm     87 % 0 in
07:42 46.2 °F 42.8 °F 30.2 in Calm     88 % 0.01 in
07:52 46 °F 43 °F 30.2 in WNW 1 mph   89 % 0.01 in
07:57 45.7 °F 43 °F 30.2 in Calm   2 mph 90 % 0.02 in
08:02 45.7 °F 43.2 °F 30.2 in Calm   2 mph 91 % 0.02 in
08:07 45.7 °F 43 °F 30.2 in Calm   2 mph 90 % 0.02 in
08:12 45.5 °F 43 °F 30.2 in West 1 mph 2 mph 91 % 0.02 in
08:17 45.7 °F 43.2 °F 30.2 in WSW 1 mph 1 mph 91 % 0.03 in
08:22 45.9 °F 43.2 °F 30.2 in Calm   1 mph 90 % 0.04 in
08:32 46.6 °F 43.2 °F 30.2 in Calm   3 mph 88 % 0.03 in
08:37 46.6 °F 43.2 °F 30.2 in ESE 1 mph 4 mph 88 % 0.04 in
08:42 46.6 °F 43.2 °F 30.2 in East 1 mph 4 mph 88 % 0.04 in
08:47 46.6 °F 43.5 °F 30.2 in East 1 mph 2 mph 89 % 0.03 in
08:52 46.6 °F 43.5 °F 30.2 in Calm   2 mph 89 % 0.03 in
09:02 46.8 °F 43.3 °F 30.2 in Calm   3 mph 88 % 0.03 in
09:12 46.8 °F 43.3 °F 30.3 in SE 1 mph 3 mph 88 % 0.03 in
09:17 46.9 °F 43.5 °F 30.3 in Calm   2 mph 88 % 0.02 in
09:22 46.9 °F 43.3 °F 30.3 in Calm   2 mph 87 % 0.02 in
09:32 46.8 °F 43.7 °F 30.3 in West 1 mph 2 mph 89 % 0.02 in
09:42 47.1 °F 43.7 °F 30.3 in Calm   1 mph 88 % 0.02 in
09:52 47.1 °F 43.7 °F 30.3 in Calm   1 mph 88 % 0.03 in
10:02 47.5 °F 44.1 °F 30.3 in Calm   2 mph 88 % 0.03 in
10:12 47.5 °F 44.4 °F 30.3 in Calm   3 mph 89 % 0.03 in
10:17 47.5 °F 44.4 °F 30.3 in Calm     89 % 0.03 in
10:22 47.7 °F 44.6 °F 30.3 in East 1 mph   89 % 0.02 in
10:32 47.8 °F 44.8 °F 30.3 in Calm   1 mph 89 % 0.02 in
10:42 48.2 °F 44.8 °F 30.3 in ESE 1 mph 2 mph 88 % 0.02 in
10:47 48.4 °F 45 °F 30.3 in East 2 mph 4 mph 88 % 0.01 in
10:52 48.6 °F 44.8 °F 30.3 in ESE 1 mph 4 mph 87 % 0.01 in
10:57 48.6 °F 44.8 °F 30.3 in ESE 1 mph 5 mph 87 % 0 in
11:02 48.6 °F 44.8 °F 30.3 in SE 3 mph 5 mph 87 % 0 in
11:12 48.7 °F 45.3 °F 30.3 in ESE 3 mph 4 mph 88 % 0.01 in
11:17 48.9 °F 45.1 °F 30.3 in Calm   5 mph 87 % 0.01 in
11:27 49.1 °F 45.3 °F 30.3 in Calm   5 mph 87 % 0.02 in
11:32 48.9 °F 45.1 °F 30.3 in Calm   5 mph 87 % 0.02 in
11:42 48.9 °F 45 °F 30.3 in Calm   3 mph 86 % 0.02 in
11:52 48.9 °F 44.6 °F 30.3 in ESE 1 mph 6 mph 85 % 0.02 in
11:57 48.9 °F 45 °F 30.3 in Calm   6 mph 86 % 0.02 in
12:02 48.9 °F 45 °F 30.3 in ESE 3 mph 6 mph 86 % 0.02 in
12:12 49.3 °F 45 °F 30.3 in ESE 3 mph 6 mph 85 % 0.02 in
12:17 49.5 °F 44.8 °F 30.3 in SE 3 mph 6 mph 84 % 0.02 in
12:22 49.6 °F 44.8 °F 30.3 in SE 3 mph 6 mph 83 % 0.02 in
12:32 49.8 °F 44.6 °F 30.3 in ESE 2 mph 7 mph 82 % 0.01 in
12:37 49.8 °F 44.6 °F 30.3 in Calm   7 mph 82 % 0 in
12:42 50 °F 44.8 °F 30.3 in SE 3 mph 7 mph 82 % 0 in
12:47 50.2 °F 44.6 °F 30.3 in SE 2 mph 6 mph 81 % 0 in
12:52 50.2 °F 44.6 °F 30.3 in ESE 3 mph 6 mph 81 % 0 in
12:57 50.4 °F 44.8 °F 30.3 in SE 5 mph 9 mph 81 % 0 in
13:02 50.5 °F 44.6 °F 30.3 in SE 4 mph 9 mph 80 % 0 in
13:12 50.5 °F 45 °F 30.3 in SE 5 mph 8 mph 81 % 0 in
13:17 50.7 °F 44.8 °F 30.3 in SE 3 mph 8 mph 80 % 0 in
13:22 50.7 °F 45.1 °F 30.3 in SE 1 mph 8 mph 81 % 0 in
13:32 50.9 °F 45 °F 30.3 in SSE 3 mph 7 mph 80 % 0 in
13:42 51.3 °F 45.3 °F 30.3 in SE 6 mph 7 mph 80 % 0 in
13:52 51.4 °F 45.1 °F 30.3 in SE 2 mph 7 mph 79 % 0 in
13:57 51.6 °F 45.7 °F 30.3 in SE 2 mph 9 mph 80 % 0 in
14:02 51.8 °F 45.5 °F 30.3 in SE 3 mph 9 mph 79 % 0 in
14:07 52 °F 46 °F 30.3 in ESE 3 mph 9 mph 80 % 0 in
14:17 52.2 °F 45.5 °F 30.3 in SSE 4 mph 9 mph 78 % 0 in
14:22 52.2 °F 45.5 °F 30.3 in SE 3 mph 9 mph 78 % 0 in
14:32 52.3 °F 45.7 °F 30.3 in SE 2 mph 12 mph 78 % 0 in
14:37 52.3 °F 45.7 °F 30.3 in SSE 4 mph 8 mph 78 % 0 in
14:47 52.5 °F 45.9 °F 30.3 in Calm   6 mph 78 % 0 in
14:52 52.5 °F 46.2 °F 30.3 in Calm   6 mph 79 % 0 in
14:57 52.9 °F 46.2 °F 30.3 in SSE 2 mph 6 mph 78 % 0 in
15:02 52.9 °F 46.2 °F 30.3 in SE 3 mph 6 mph 78 % 0 in
15:12 52.9 °F 46.6 °F 30.3 in SE 2 mph 5 mph 79 % 0 in
15:17 53.1 °F 46 °F 30.3 in East 3 mph 5 mph 77 % 0 in
15:22 53.1 °F 46.4 °F 30.3 in Calm   4 mph 78 % 0 in
15:32 53.2 °F 46.6 °F 30.3 in Calm   5 mph 78 % 0 in
15:42 53.4 °F 47.1 °F 30.3 in Calm   4 mph 79 % 0 in
15:47 53.8 °F 47.1 °F 30.3 in SE 1 mph 4 mph 78 % 0 in
15:52 54 °F 47.3 °F 30.3 in SE 1 mph 2 mph 78 % 0 in
16:02 54.3 °F 46.9 °F 30.3 in SE 1 mph 3 mph 76 % 0 in
16:07 54.5 °F 47.1 °F 30.3 in Calm   2 mph 76 % 0 in
16:12 54.7 °F 47.3 °F 30.3 in Calm   3 mph 76 % 0 in
16:17 54.9 °F 46.8 °F 30.3 in SE 2 mph 3 mph 74 % 0 in
16:22 54.9 °F 46.8 °F 30.3 in ESE 1 mph 5 mph 74 % 0 in
16:32 54.9 °F 46.8 °F 30.3 in SE 1 mph 5 mph 74 % 0 in
16:42 54.9 °F 46.4 °F 30.3 in SE 1 mph 3 mph 73 % 0 in
16:47 54.9 °F 47.1 °F 30.3 in Calm   3 mph 75 % 0 in
16:52 54.7 °F 46.6 °F 30.3 in ESE 1 mph 3 mph 74 % 0 in
16:57 54.7 °F 47.3 °F 30.3 in Calm   2 mph 76 % 0 in
17:02 54.5 °F 47.1 °F 30.3 in Calm   2 mph 76 % 0 in
17:07 54.5 °F 46.8 °F 30.3 in Calm   1 mph 75 % 0 in
17:12 54.5 °F 46.8 °F 30.3 in Calm   1 mph 75 % 0 in
17:22 54.7 °F 46.6 °F 30.3 in Calm   1 mph 74 % 0 in
17:32 55.2 °F 46 °F 30.3 in Calm   1 mph 71 % 0 in
17:42 55 °F 45.5 °F 30.3 in ENE 1 mph 4 mph 70 % 0 in
17:52 54.7 °F 45.1 °F 30.4 in SE 3 mph 4 mph 70 % 0 in
17:57 54.7 °F 45.1 °F 30.4 in East 4 mph 4 mph 70 % 0 in
18:02 54.7 °F 45.1 °F 30.4 in ENE 2 mph 5 mph 70 % 0 in
18:07 54.7 °F 44.8 °F 30.4 in SE 2 mph 5 mph 69 % 0 in
18:17 54.5 °F 44.6 °F 30.4 in East 2 mph 7 mph 69 % 0 in
18:22 54.3 °F 44.4 °F 30.4 in ENE 3 mph 5 mph 69 % 0 in
18:27 54.3 °F 44.4 °F 30.4 in East 1 mph 5 mph 69 % 0 in
18:32 54.3 °F 44.8 °F 30.4 in East 2 mph 4 mph 70 % 0 in
18:42 54 °F 44.8 °F 30.4 in SE 1 mph 4 mph 71 % 0 in
18:47 53.2 °F 44.4 °F 30.4 in Calm   4 mph 72 % 0 in
18:52 52.9 °F 44.4 °F 30.4 in Calm   4 mph 73 % 0 in
18:57 52.9 °F 44.4 °F 30.4 in Calm   4 mph 73 % 0 in
19:02 53.2 °F 44.8 °F 30.4 in Calm   1 mph 73 % 0 in
19:12 52.5 °F 44.4 °F 30.4 in Calm   3 mph 74 % 0 in
19:17 52.5 °F 44.4 °F 30.4 in Calm   3 mph 74 % 0 in
19:22 52.7 °F 44.6 °F 30.4 in Calm   1 mph 74 % 0 in
19:32 52.9 °F 44.8 °F 30.4 in Calm   1 mph 74 % 0 in
19:37 52.9 °F 44.8 °F 30.4 in Calm   1 mph 74 % 0 in
19:42 53.1 °F 44.6 °F 30.4 in Calm   1 mph 73 % 0 in
19:47 52.9 °F 44.4 °F 30.4 in Calm   2 mph 73 % 0 in
19:52 52.3 °F 44.6 °F 30.4 in WNW 1 mph 2 mph 75 % 0 in
19:57 52.2 °F 44.4 °F 30.4 in WNW 1 mph 1 mph 75 % 0 in
20:02 51.6 °F 44.6 °F 30.4 in WNW 2 mph 2 mph 77 % 0 in
20:12 51.6 °F 44.2 °F 30.4 in Calm   2 mph 76 % 0 in
20:17 52.2 °F 44.4 °F 30.4 in Calm   2 mph 75 % 0 in
20:22 52.3 °F 44.2 °F 30.4 in Calm   2 mph 74 % 0 in
20:27 52.3 °F 44.2 °F 30.4 in Calm   2 mph 74 % 0 in
20:32 52.3 °F 44.2 °F 30.4 in Calm   2 mph 74 % 0 in
20:37 52.3 °F 44.2 °F 30.4 in Calm   1 mph 74 % 0 in
20:42 52.3 °F 44.2 °F 30.4 in Calm   1 mph 74 % 0 in
20:52 51.8 °F 43.7 °F 30.4 in East 1 mph 1 mph 74 % 0 in
20:57 51.4 °F 43.7 °F 30.4 in Calm   2 mph 75 % 0 in
21:02 51.3 °F 43.5 °F 30.4 in Calm   3 mph 75 % 0 in
21:12 50.7 °F 43.5 °F 30.4 in Calm   3 mph 76 % 0 in
21:22 50.7 °F 43.5 °F 30.4 in Calm   2 mph 76 % 0 in
21:27 50.7 °F 43.5 °F 30.4 in Calm   2 mph 76 % 0 in
21:32 50.7 °F 43.5 °F 30.4 in Calm   2 mph 76 % 0 in
21:37 50.7 °F 43.5 °F 30.4 in Calm   2 mph 76 % 0 in
21:42 50.7 °F 43.5 °F 30.4 in NE 1 mph 2 mph 76 % 0 in
21:47 50.7 °F 43.5 °F 30.4 in Calm   2 mph 76 % 0 in
21:52 50.7 °F 43.5 °F 30.4 in Calm   1 mph 76 % 0 in
22:02 50.4 °F 43.2 °F 30.4 in Calm   1 mph 76 % 0 in
22:12 49.8 °F 43 °F 30.4 in Calm   4 mph 77 % 0 in
22:17 49.5 °F 42.8 °F 30.4 in Calm   4 mph 78 % 0 in
22:22 49.3 °F 43 °F 30.4 in ENE 1 mph 4 mph 79 % 0 in
22:27 49.3 °F 43 °F 30.4 in Calm   2 mph 79 % 0 in
22:32 49.1 °F 42.8 °F 30.4 in Calm   3 mph 79 % 0 in
22:37 49.3 °F 43 °F 30.4 in Calm   3 mph 79 % 0 in
22:42 49.3 °F 43 °F 30.4 in ENE 1 mph 3 mph 79 % 0 in
22:47 49.3 °F 43 °F 30.4 in Calm   2 mph 79 % 0 in
22:52 49.5 °F 42.8 °F 30.4 in Calm   2 mph 78 % 0 in
23:02 49.5 °F 42.8 °F 30.4 in Calm   1 mph 78 % 0 in
23:07 49.3 °F 43 °F 30.4 in Calm   1 mph 79 % 0 in
23:12 48.9 °F 42.6 °F 30.4 in Calm   1 mph 79 % 0 in
23:17 48.9 °F 42.6 °F 30.4 in Calm     79 % 0 in
23:22 48.7 °F 42.8 °F 30.4 in Calm     80 % 0 in
23:27 48.7 °F 42.8 °F 30.4 in Calm   1 mph 80 % 0 in
23:32 48.9 °F 43 °F 30.4 in Calm   1 mph 80 % 0 in
23:37 49.1 °F 42.8 °F 30.4 in Calm   3 mph 79 % 0 in
23:42 49.3 °F 43 °F 30.4 in ESE 1 mph 3 mph 79 % 0 in
23:47 49.1 °F 42.8 °F 30.4 in Calm   3 mph 79 % 0 in
23:57 48.7 °F 42.8 °F 30.4 in Calm   4 mph 80 % 0 in
Meteo18
Compliments of Weather Underground - 4 mb

Script developed by  Jim McMurry - jmcmurry@mwt.net Adapted for the template by  Wim van der Kuil - Leuven-Template.eu

You find our weather info also at:

European Weather Network

Weather Underground

Equipment we use:

Weather-station
Davis Vue

Weather-program
Meteohub

Weather-server
Raspberry PI 2 B+

Provider
1 and 1

Davis Vue

Meteohub

Raspberry PI 2 B+

1 and 1